Time,TemperatureF,DewpointF,PressureIn,WindDirection,WindDirectionDegrees,WindSpeedMPH,WindSpeedGustMPH,Humidity,HourlyPrecipIn,Conditions,Clouds,dailyrainin,SoftwareType,DateUTC
2013-10-01 00:06:00,66.2,62.9,30.01,SSW,195,0.0,6.0,89,0.00,,,0.00,Wunderground v.1.15,2013-10-01 05:06:00,
2013-10-01 00:12:00,66.2,62.9,30.01,SSW,195,0.0,6.0,89,0.00,,,0.00,Wunderground v.1.15,2013-10-01 05:12:00,
2013-10-01 00:17:00,66.1,63.1,30.02,SSW,195,0.0,6.0,90,0.00,,,0.00,Wunderground v.1.15,2013-10-01 05:17:00,
2013-10-01 00:22:00,66.1,63.1,30.02,SSW,195,0.0,6.0,90,0.00,,,0.00,Wunderground v.1.15,2013-10-01 05:22:00,
2013-10-01 00:27:00,66.0,63.0,30.01,SSW,195,0.0,6.0,90,0.00,,,0.00,Wunderground v.1.15,2013-10-01 05:27:00,
2013-10-01 00:32:00,66.0,63.0,30.02,SSW,195,0.0,6.0,90,0.00,,,0.00,Wunderground v.1.15,2013-10-01 05:32:00,
2013-10-01 00:38:00,66.0,63.0,30.02,SSW,195,0.0,6.0,90,0.00,,,0.00,Wunderground v.1.15,2013-10-01 05:38:00,
2013-10-01 00:43:00,66.0,63.0,30.02,SSW,195,0.0,6.0,90,0.00,,,0.00,Wunderground v.1.15,2013-10-01 05:43:00,
2013-10-01 00:48:00,65.9,62.9,30.02,SSW,195,0.0,6.0,90,0.00,,,0.00,Wunderground v.1.15,2013-10-01 05:48:00,
2013-10-01 00:54:00,65.9,62.9,30.02,SSW,195,0.0,6.0,90,0.00,,,0.00,Wunderground v.1.15,2013-10-01 05:54:00,
2013-10-01 00:59:00,65.9,62.9,30.02,SSW,195,0.0,6.0,90,0.00,,,0.00,Wunderground v.1.15,2013-10-01 05:59:00,
2013-10-01 01:04:00,65.9,62.9,30.02,SSW,195,0.0,6.0,90,0.00,,,0.00,Wunderground v.1.15,2013-10-01 06:04:00,
2013-10-01 01:10:00,65.9,62.9,30.02,SSW,195,0.0,6.0,90,0.00,,,0.00,Wunderground v.1.15,2013-10-01 06:10:00,
2013-10-01 01:16:00,65.8,62.8,30.02,SSW,195,0.0,6.0,90,0.00,,,0.00,Wunderground v.1.15,2013-10-01 06:16:00,
2013-10-01 01:22:00,65.8,62.8,30.02,SSW,195,0.0,6.0,90,0.00,,,0.00,Wunderground v.1.15,2013-10-01 06:22:00,
2013-10-01 01:27:00,65.8,63.1,30.02,SSW,195,0.0,6.0,91,0.00,,,0.00,Wunderground v.1.15,2013-10-01 06:27:00,
2013-10-01 01:32:00,65.8,62.8,30.02,SSW,195,0.0,6.0,90,0.00,,,0.00,Wunderground v.1.15,2013-10-01 06:32:00,
2013-10-01 01:37:00,65.8,62.8,30.02,SSW,195,0.0,6.0,90,0.00,,,0.00,Wunderground v.1.15,2013-10-01 06:37:00,
2013-10-01 01:43:00,65.8,62.8,30.02,SSW,195,0.0,6.0,90,0.00,,,0.00,Wunderground v.1.15,2013-10-01 06:43:00,
2013-10-01 01:48:00,65.8,62.8,30.02,SSW,195,0.0,6.0,90,0.00,,,0.00,Wunderground v.1.15,2013-10-01 06:48:00,
2013-10-01 01:54:00,65.9,62.9,30.02,SSW,195,0.0,6.0,90,0.00,,,0.00,Wunderground v.1.15,2013-10-01 06:54:00,
2013-10-01 01:59:00,65.8,62.8,30.02,SSW,195,0.0,6.0,90,0.00,,,0.00,Wunderground v.1.15,2013-10-01 06:59:00,
2013-10-01 02:04:00,65.8,62.8,30.02,SSW,195,0.0,6.0,90,0.00,,,0.00,Wunderground v.1.15,2013-10-01 07:04:00,
2013-10-01 02:09:00,65.7,62.7,30.02,SSW,195,0.0,6.0,90,0.00,,,0.00,Wunderground v.1.15,2013-10-01 07:09:00,
2013-10-01 02:14:00,65.6,62.6,30.02,SSW,195,0.0,6.0,90,0.00,,,0.00,Wunderground v.1.15,2013-10-01 07:14:00,
2013-10-01 02:20:00,65.4,62.4,30.02,SSW,195,0.0,6.0,90,0.00,,,0.00,Wunderground v.1.15,2013-10-01 07:20:00,
2013-10-01 02:26:00,65.2,62.2,30.02,SSW,195,0.0,6.0,90,0.00,,,0.00,Wunderground v.1.15,2013-10-01 07:26:00,
2013-10-01 02:31:00,65.0,62.3,30.02,SSW,195,0.0,6.0,91,0.00,,,0.00,Wunderground v.1.15,2013-10-01 07:31:00,
2013-10-01 02:36:00,64.8,62.1,30.02,SSW,195,0.0,6.0,91,0.00,,,0.00,Wunderground v.1.15,2013-10-01 07:36:00,
2013-10-01 02:42:00,64.6,61.9,30.02,SSW,195,0.0,6.0,91,0.00,,,0.00,Wunderground v.1.15,2013-10-01 07:42:00,
2013-10-01 02:47:00,64.5,62.1,30.02,SSW,195,0.0,6.0,92,0.00,,,0.00,Wunderground v.1.15,2013-10-01 07:47:00,
2013-10-01 02:52:00,64.4,62.0,30.02,SSW,195,0.0,6.0,92,0.00,,,0.00,Wunderground v.1.15,2013-10-01 07:52:00,
2013-10-01 02:57:00,64.3,62.2,30.02,SSW,195,0.0,6.0,93,0.00,,,0.00,Wunderground v.1.15,2013-10-01 07:57:00,
2013-10-01 03:04:00,64.2,62.1,30.02,SSW,195,0.0,6.0,93,0.00,,,0.00,Wunderground v.1.15,2013-10-01 08:04:00,
2013-10-01 03:11:00,64.2,62.1,30.02,SSW,195,0.0,6.0,93,0.00,,,0.00,Wunderground v.1.15,2013-10-01 08:11:00,
2013-10-01 03:16:00,64.1,62.0,30.02,SSW,195,0.0,6.0,93,0.00,,,0.00,Wunderground v.1.15,2013-10-01 08:16:00,
2013-10-01 03:21:00,64.1,62.3,30.02,SSW,195,0.0,6.0,94,0.00,,,0.00,Wunderground v.1.15,2013-10-01 08:21:00,
2013-10-01 03:27:00,64.1,62.3,30.03,SSW,195,0.0,6.0,94,0.00,,,0.00,Wunderground v.1.15,2013-10-01 08:27:00,
2013-10-01 03:32:00,64.1,62.3,30.03,SSW,195,0.0,6.0,94,0.00,,,0.00,Wunderground v.1.15,2013-10-01 08:32:00,
2013-10-01 03:38:00,64.1,62.3,30.03,SSW,195,0.0,6.0,94,0.00,,,0.00,Wunderground v.1.15,2013-10-01 08:38:00,
2013-10-01 03:43:00,64.1,62.3,30.03,SSW,195,0.0,6.0,94,0.00,,,0.00,Wunderground v.1.15,2013-10-01 08:43:00,
2013-10-01 03:50:00,64.1,62.3,30.03,SSW,195,0.0,6.0,94,0.00,,,0.00,Wunderground v.1.15,2013-10-01 08:50:00,
2013-10-01 03:56:00,64.2,62.4,30.03,SSW,195,0.0,6.0,94,0.00,,,0.00,Wunderground v.1.15,2013-10-01 08:56:00,
2013-10-01 04:01:00,64.2,62.4,30.03,SSW,195,0.0,6.0,94,0.00,,,0.00,Wunderground v.1.15,2013-10-01 09:01:00,
2013-10-01 04:06:00,64.2,62.4,30.03,SSW,195,0.0,6.0,94,0.00,,,0.00,Wunderground v.1.15,2013-10-01 09:06:00,
2013-10-01 04:12:00,64.3,62.5,30.04,SSW,195,0.0,6.0,94,0.00,,,0.00,Wunderground v.1.15,2013-10-01 09:12:00,
2013-10-01 04:18:00,64.3,62.5,30.04,SSW,195,0.0,6.0,94,0.00,,,0.00,Wunderground v.1.15,2013-10-01 09:18:00,
2013-10-01 04:24:00,64.4,62.6,30.04,SSW,195,0.0,6.0,94,0.00,,,0.00,Wunderground v.1.15,2013-10-01 09:24:00,
2013-10-01 04:29:00,64.4,62.6,30.04,SSW,195,0.0,6.0,94,0.00,,,0.00,Wunderground v.1.15,2013-10-01 09:29:00,
2013-10-01 04:34:00,64.4,62.6,30.05,SSW,195,0.0,6.0,94,0.00,,,0.00,Wunderground v.1.15,2013-10-01 09:34:00,
2013-10-01 04:39:00,64.4,62.6,30.05,SSW,195,0.0,6.0,94,0.00,,,0.00,Wunderground v.1.15,2013-10-01 09:39:00,
2013-10-01 04:46:00,64.4,62.6,30.05,SSW,195,0.0,6.0,94,0.00,,,0.00,Wunderground v.1.15,2013-10-01 09:46:00,
2013-10-01 04:54:00,64.3,62.5,30.05,SSW,195,0.0,6.0,94,0.00,,,0.00,Wunderground v.1.15,2013-10-01 09:54:00,
2013-10-01 05:00:00,64.3,62.5,30.05,SE,133,0.0,6.0,94,0.00,,,0.00,Wunderground v.1.15,2013-10-01 10:00:00,
2013-10-01 05:06:00,64.2,62.4,30.05,SE,131,0.0,6.0,94,0.00,,,0.00,Wunderground v.1.15,2013-10-01 10:06:00,
2013-10-01 05:12:00,64.1,62.3,30.06,ENE,66,0.0,6.0,94,0.00,,,0.00,Wunderground v.1.15,2013-10-01 10:12:00,
2013-10-01 05:18:00,63.9,62.1,30.06,ENE,66,0.0,6.0,94,0.00,,,0.00,Wunderground v.1.15,2013-10-01 10:18:00,
2013-10-01 05:24:00,63.9,62.1,30.06,ENE,65,0.0,6.0,94,0.00,,,0.00,Wunderground v.1.15,2013-10-01 10:24:00,
2013-10-01 05:29:00,63.8,62.0,30.06,ENE,66,0.0,6.0,94,0.00,,,0.00,Wunderground v.1.15,2013-10-01 10:29:00,
2013-10-01 05:35:00,63.8,62.3,30.06,ENE,66,0.0,6.0,95,0.00,,,0.00,Wunderground v.1.15,2013-10-01 10:35:00,
2013-10-01 05:40:00,63.8,62.3,30.06,ENE,65,0.0,6.0,95,0.00,,,0.00,Wunderground v.1.15,2013-10-01 10:40:00,
2013-10-01 05:46:00,63.8,62.3,30.06,ENE,65,0.0,6.0,95,0.00,,,0.00,Wunderground v.1.15,2013-10-01 10:46:00,
2013-10-01 05:51:00,63.7,62.2,30.06,ENE,65,0.0,6.0,95,0.00,,,0.00,Wunderground v.1.15,2013-10-01 10:51:00,
2013-10-01 05:59:00,63.5,62.0,30.07,ENE,65,0.0,6.0,95,0.00,,,0.00,Wunderground v.1.15,2013-10-01 10:59:00,
2013-10-01 06:04:00,63.4,61.9,30.07,ENE,65,0.0,6.0,95,0.00,,,0.00,Wunderground v.1.15,2013-10-01 11:04:00,
2013-10-01 06:09:00,63.5,62.0,30.07,ENE,65,0.0,6.0,95,0.00,,,0.00,Wunderground v.1.15,2013-10-01 11:09:00,
2013-10-01 06:15:00,63.5,62.0,30.07,ENE,66,0.0,6.0,95,0.00,,,0.00,Wunderground v.1.15,2013-10-01 11:15:00,
2013-10-01 06:20:00,63.6,62.4,30.07,ENE,65,0.0,6.0,96,0.00,,,0.00,Wunderground v.1.15,2013-10-01 11:20:00,
2013-10-01 06:25:00,63.6,62.1,30.07,ENE,65,0.0,6.0,95,0.00,,,0.00,Wunderground v.1.15,2013-10-01 11:25:00,
2013-10-01 06:31:00,63.6,62.1,30.07,ENE,65,0.0,6.0,95,0.00,,,0.00,Wunderground v.1.15,2013-10-01 11:31:00,
2013-10-01 06:36:00,63.7,62.2,30.08,ENE,65,0.0,6.0,95,0.00,,,0.00,Wunderground v.1.15,2013-10-01 11:36:00,
2013-10-01 06:42:00,63.7,62.2,30.08,ENE,65,0.0,6.0,95,0.00,,,0.00,Wunderground v.1.15,2013-10-01 11:42:00,
2013-10-01 06:48:00,63.6,62.1,30.07,ENE,65,0.0,6.0,95,0.00,,,0.00,Wunderground v.1.15,2013-10-01 11:48:00,
2013-10-01 06:54:00,63.5,62.0,30.07,ENE,65,0.0,6.0,95,0.00,,,0.00,Wunderground v.1.15,2013-10-01 11:54:00,
2013-10-01 07:05:00,63.2,61.7,30.08,ENE,63,0.0,6.0,95,0.00,,,0.00,Wunderground v.1.15,2013-10-01 12:05:00,
2013-10-01 07:11:00,63.2,61.7,30.08,ENE,63,0.0,6.0,95,0.00,,,0.00,Wunderground v.1.15,2013-10-01 12:11:00,
2013-10-01 07:17:00,63.3,61.8,30.08,ENE,63,0.0,6.0,95,0.00,,,0.00,Wunderground v.1.15,2013-10-01 12:17:00,
2013-10-01 07:22:00,63.4,61.9,30.08,ENE,63,0.0,6.0,95,0.00,,,0.00,Wunderground v.1.15,2013-10-01 12:22:00,
2013-10-01 07:28:00,63.5,62.0,30.09,ENE,63,0.0,6.0,95,0.00,,,0.00,Wunderground v.1.15,2013-10-01 12:28:00,
2013-10-01 07:33:00,63.6,62.4,30.09,ENE,63,0.0,6.0,96,0.00,,,0.00,Wunderground v.1.15,2013-10-01 12:33:00,
2013-10-01 07:38:00,63.7,62.5,30.09,ENE,62,0.0,6.0,96,0.00,,,0.00,Wunderground v.1.15,2013-10-01 12:38:00,
2013-10-01 07:44:00,63.8,62.3,30.09,ENE,62,0.0,6.0,95,0.00,,,0.00,Wunderground v.1.15,2013-10-01 12:44:00,
2013-10-01 07:50:00,64.0,62.5,30.09,ENE,62,0.0,6.0,95,0.00,,,0.00,Wunderground v.1.15,2013-10-01 12:50:00,
2013-10-01 07:56:00,64.1,62.6,30.09,ENE,62,0.0,6.0,95,0.00,,,0.00,Wunderground v.1.15,2013-10-01 12:56:00,
2013-10-01 08:01:00,64.3,62.8,30.09,ENE,65,0.0,6.0,95,0.00,,,0.00,Wunderground v.1.15,2013-10-01 13:01:00,
2013-10-01 08:06:00,64.7,62.9,30.09,ENE,65,0.0,6.0,94,0.00,,,0.00,Wunderground v.1.15,2013-10-01 13:06:00,
2013-10-01 08:12:00,64.9,63.1,30.09,ENE,65,0.0,6.0,94,0.00,,,0.00,Wunderground v.1.15,2013-10-01 13:12:00,
2013-10-01 08:18:00,65.3,63.2,30.09,ENE,64,0.0,6.0,93,0.00,,,0.00,Wunderground v.1.15,2013-10-01 13:18:00,
2013-10-01 08:23:00,65.9,63.8,30.09,ENE,65,0.0,6.0,93,0.00,,,0.00,Wunderground v.1.15,2013-10-01 13:23:00,
2013-10-01 08:28:00,66.6,63.9,30.09,East,93,0.0,6.0,91,0.00,,,0.00,Wunderground v.1.15,2013-10-01 13:28:00,
2013-10-01 08:34:00,67.2,64.2,30.09,SSE,162,0.0,6.0,90,0.00,,,0.00,Wunderground v.1.15,2013-10-01 13:34:00,
2013-10-01 08:39:00,67.7,64.0,30.09,SE,144,0.0,6.0,88,0.00,,,0.00,Wunderground v.1.15,2013-10-01 13:39:00,
2013-10-01 08:44:00,67.9,63.9,30.09,SE,130,0.0,6.0,87,0.00,,,0.00,Wunderground v.1.15,2013-10-01 13:44:00,
2013-10-01 08:49:00,67.9,63.9,30.09,South,184,0.0,6.0,87,0.00,,,0.00,Wunderground v.1.15,2013-10-01 13:49:00,
2013-10-01 08:54:00,67.8,63.8,30.09,ESE,110,1.0,6.0,87,0.00,,,0.00,Wunderground v.1.15,2013-10-01 13:54:00,
2013-10-01 09:00:00,68.0,64.0,30.10,SSE,166,0.0,6.0,87,0.00,,,0.00,Wunderground v.1.15,2013-10-01 14:00:00,
2013-10-01 09:05:00,68.3,64.3,30.10,South,188,1.0,6.0,87,0.00,,,0.00,Wunderground v.1.15,2013-10-01 14:05:00,
2013-10-01 09:10:00,68.5,64.1,30.10,SW,216,2.0,6.0,86,0.00,,,0.00,Wunderground v.1.15,2013-10-01 14:10:00,
2013-10-01 09:16:00,69.6,65.2,30.10,SSW,194,2.0,6.0,86,0.00,,,0.00,Wunderground v.1.15,2013-10-01 14:16:00,
2013-10-01 09:21:00,70.1,64.7,30.10,SSW,201,2.0,6.0,83,0.00,,,0.00,Wunderground v.1.15,2013-10-01 14:21:00,
2013-10-01 09:27:00,70.3,64.9,30.10,SSW,213,3.0,6.0,83,0.00,,,0.00,Wunderground v.1.15,2013-10-01 14:27:00,